Terminal Aerodrome Forecast
Issued by NWS

Home | Current Version | Previous Version | Text Only | Print | Product List | Glossary On
Versions: 1 2 3 4 5 6 7 8 9 10 11 12 13 14 15 16 17 18 19 20 21
000
FTUS43 KAPX 222320
TAFPLN
TAF
KPLN 222320Z 2300/2324 11007KT P6SM OVC018
     FM230600 10007KT 5SM -SN SCT015 OVC025
     FM230900 09007KT 2SM -SN BR OVC007
     FM231200 09010KT 4SM -RA BR OVC007=

USA.gov is the U.S. government's official web portal to all federal, state and local government web resources and services.